createdAt,value
2023-05-09T00:00:11.178Z,61.12
2023-05-09T00:05:13.114Z,61.86
2023-05-09T00:10:14.993Z,60.92
2023-05-09T00:15:16.582Z,62.16
2023-05-09T00:20:18.103Z,62.28
2023-05-09T00:25:19.542Z,61.51
2023-05-09T00:30:21.031Z,61.25
2023-05-09T00:35:22.727Z,61.89
2023-05-09T00:40:24.195Z,62.49
2023-05-09T00:45:26.300Z,61.48
2023-05-09T00:50:27.744Z,62.08
2023-05-09T00:55:29.498Z,62.13
2023-05-09T01:00:31.336Z,62.84
2023-05-09T01:05:43.753Z,62.28
2023-05-09T01:11:09.410Z,62.33
2023-05-09T01:16:19.902Z,60.17
2023-05-09T01:21:26.878Z,61.95
2023-05-09T01:27:04.396Z,63.58
2023-05-09T01:32:09.802Z,61.63
2023-05-09T01:37:14.973Z,63.25
2023-05-09T01:42:18.976Z,62.66
2023-05-09T01:47:21.095Z,62.26
2023-05-09T01:52:24.456Z,61.88
2023-05-09T01:57:29.130Z,62.61
2023-05-09T02:02:30.971Z,62.60
2023-05-09T02:07:33.317Z,63.23
2023-05-09T02:12:34.784Z,63.16
2023-05-09T02:17:36.176Z,63.93
2023-05-09T02:22:41.198Z,64.34
2023-05-09T02:27:46.035Z,64.95
2023-05-09T02:32:50.689Z,65.45
2023-05-09T02:37:55.256Z,63.73
2023-05-09T02:42:57.213Z,64.81
2023-05-09T02:47:59.004Z,64.57
2023-05-09T02:53:00.519Z,62.81
2023-05-09T02:58:11.934Z,64.72
2023-05-09T03:03:14.877Z,65.47
2023-05-09T03:08:16.516Z,65.41
2023-05-09T03:13:18.969Z,64.55
2023-05-09T03:18:20.576Z,64.45
2023-05-09T03:23:21.983Z,64.03
2023-05-09T03:28:23.512Z,65.81
2023-05-09T03:33:25.028Z,65.34
2023-05-09T03:38:27.629Z,65.93
2023-05-09T03:43:29.127Z,63.78
2023-05-09T03:48:31.411Z,65.67
2023-05-09T03:53:32.936Z,65.20
2023-05-09T03:58:34.460Z,64.99
2023-05-09T04:03:37.629Z,65.39
2023-05-09T04:08:39.770Z,65.17
2023-05-09T04:13:42.203Z,65.81
2023-05-09T04:19:03.308Z,65.57
2023-05-09T04:24:05.017Z,63.56
2023-05-09T04:29:16.954Z,64.68
2023-05-09T04:34:24.801Z,65.23
2023-05-09T04:39:27.034Z,63.59
2023-05-09T04:44:37.497Z,63.90
2023-05-09T04:49:39.052Z,63.08
2023-05-09T04:54:41.007Z,64.35
2023-05-09T04:59:42.677Z,63.07
2023-05-09T05:04:46.880Z,61.65
2023-05-09T05:09:48.949Z,61.58
2023-05-09T05:14:50.659Z,62.88
2023-05-09T05:19:55.217Z,62.23
2023-05-09T05:24:56.978Z,60.58
2023-05-09T05:29:59.760Z,61.02
2023-05-09T05:35:02.563Z,61.84
2023-05-09T05:40:05.977Z,59.02
2023-05-09T05:45:09.023Z,59.38
2023-05-09T05:50:14.057Z,59.12
2023-05-09T05:55:15.854Z,58.70
2023-05-09T06:00:17.816Z,58.54
2023-05-09T06:05:23.147Z,57.62
2023-05-09T06:10:25.793Z,59.12
2023-05-09T06:15:27.392Z,57.94
2023-05-09T06:20:29.784Z,58.10
2023-05-09T06:25:31.232Z,56.20
2023-05-09T06:30:32.670Z,57.10
2023-05-09T06:35:34.093Z,57.27
2023-05-09T06:40:35.624Z,57.48
2023-05-09T06:45:37.111Z,55.74
2023-05-09T06:50:38.644Z,55.70
2023-05-09T06:55:40.210Z,54.86
2023-05-09T07:00:41.649Z,54.32
2023-05-09T07:05:43.185Z,57.79
2023-05-09T07:10:44.582Z,54.03
2023-05-09T07:15:46.313Z,52.64
2023-05-09T07:20:47.882Z,54.78
2023-05-09T07:25:49.484Z,54.42
2023-05-09T07:30:50.955Z,54.83
2023-05-09T07:35:53.037Z,53.78
2023-05-09T07:40:54.447Z,54.64
2023-05-09T07:45:55.932Z,51.29
2023-05-09T07:50:58.204Z,53.01
2023-05-09T07:55:59.681Z,55.84
2023-05-09T08:01:01.215Z,50.12
2023-05-09T08:06:02.708Z,52.96
2023-05-09T08:11:05.484Z,54.59
2023-05-09T08:16:07.502Z,54.05
2023-05-09T08:21:09.174Z,56.64
2023-05-09T08:26:10.593Z,49.19
2023-05-09T08:31:12.038Z,55.48
2023-05-09T08:36:13.456Z,55.54
2023-05-09T08:41:15.328Z,49.78
2023-05-09T08:46:18.288Z,58.88
2023-05-09T08:51:20.198Z,56.25
2023-05-09T08:56:22.266Z,51.03
2023-05-09T09:01:26.665Z,49.76
2023-05-09T09:06:30.082Z,53.97
2023-05-09T09:11:33.037Z,52.69
2023-05-09T09:16:37.049Z,62.68
2023-05-09T09:21:43.099Z,57.32
2023-05-09T09:26:50.348Z,46.71
2023-05-09T09:31:57.857Z,46.07
2023-05-09T09:36:59.459Z,55.10
2023-05-09T09:42:11.785Z,55.02
2023-05-09T09:47:13.199Z,48.51
2023-05-09T09:52:23.555Z,49.58
2023-05-09T09:57:39.706Z,43.42
2023-05-09T10:02:54.346Z,52.60
2023-05-09T10:08:01.013Z,46.84
2023-05-09T10:13:06.351Z,46.58
2023-05-09T10:18:11.136Z,47.48
2023-05-09T10:23:14.747Z,49.49
2023-05-09T10:28:22.457Z,50.82
2023-05-09T10:33:34.325Z,47.03
2023-05-09T10:38:37.235Z,43.18
2023-05-09T10:43:42.807Z,51.52
2023-05-09T10:48:48.082Z,51.75
2023-05-09T10:53:50.869Z,38.17
2023-05-09T10:58:52.513Z,50.52
2023-05-09T11:03:58.895Z,45.39
2023-05-09T11:09:32.581Z,49.50
2023-05-09T11:14:44.782Z,50.02
2023-05-09T11:19:49.810Z,45.86
2023-05-09T11:25:04.637Z,37.44
2023-05-09T11:30:34.773Z,47.23
2023-05-09T11:35:37.752Z,45.75
2023-05-09T11:40:39.670Z,47.76
2023-05-09T11:45:41.688Z,43.71
2023-05-09T11:50:47.856Z,38.17
2023-05-09T11:55:50.583Z,33.02
2023-05-09T12:00:55.015Z,39.63
2023-05-09T12:05:56.962Z,45.42
2023-05-09T12:11:08.384Z,38.13
2023-05-09T12:16:09.842Z,39.02
2023-05-09T12:21:12.123Z,48.96
2023-05-09T12:26:14.467Z,36.35
2023-05-09T12:31:16.944Z,43.63
2023-05-09T12:36:18.727Z,39.52
2023-05-09T12:41:34.949Z,51.21
2023-05-09T12:46:41.182Z,47.74
2023-05-09T12:51:49.291Z,31.37
2023-05-09T12:56:58.460Z,34.10
2023-05-09T13:02:01.647Z,38.54
2023-05-09T13:07:10.165Z,39.57
2023-05-09T13:12:11.610Z,35.69
2023-05-09T13:17:13.150Z,46.96
2023-05-09T13:22:16.511Z,46.61
2023-05-09T13:27:17.952Z,40.17
2023-05-09T13:32:19.438Z,29.29
2023-05-09T13:37:21.605Z,34.22
2023-05-09T13:42:23.022Z,34.56
2023-05-09T13:47:24.501Z,38.88
2023-05-09T13:52:26.072Z,36.88
2023-05-09T13:57:27.938Z,30.17
2023-05-09T14:02:29.457Z,30.46
2023-05-09T14:07:30.988Z,41.01
2023-05-09T14:12:32.629Z,42.37
2023-05-09T14:17:34.093Z,50.67
2023-05-09T14:22:35.583Z,45.66
2023-05-09T14:27:37.232Z,45.02
2023-05-09T14:32:38.756Z,37.84
2023-05-09T14:37:41.368Z,29.86
2023-05-09T14:42:44.107Z,32.96
2023-05-09T14:47:45.680Z,52.98
2023-05-09T14:52:48.889Z,41.61
2023-05-09T14:57:50.313Z,34.33
2023-05-09T15:02:51.772Z,33.44
2023-05-09T15:07:53.603Z,31.49
2023-05-09T15:12:55.959Z,40.79
2023-05-09T15:17:57.703Z,35.14
2023-05-09T15:23:12.483Z,32.52
2023-05-09T15:28:14.167Z,40.32
2023-05-09T15:33:15.660Z,35.60
2023-05-09T15:38:17.518Z,36.68
2023-05-09T15:43:19.079Z,36.59
2023-05-09T15:48:21.600Z,52.07
2023-05-09T15:53:23.360Z,34.80
2023-05-09T15:58:25.036Z,49.19
2023-05-09T16:03:27.542Z,34.19
2023-05-09T16:08:29.209Z,37.18
2023-05-09T16:13:31.527Z,41.18
2023-05-09T16:18:33.888Z,36.30
2023-05-09T16:23:35.368Z,35.96
2023-05-09T16:28:36.873Z,36.15
2023-05-09T16:33:38.508Z,40.69
2023-05-09T16:38:39.984Z,34.72
2023-05-09T16:43:41.519Z,45.14
2023-05-09T16:54:15.769Z,43.98
2023-05-09T16:59:20.133Z,36.32
2023-05-09T17:04:21.654Z,36.53
2023-05-09T17:09:23.130Z,36.07
2023-05-09T17:14:24.657Z,43.92
2023-05-09T17:19:26.414Z,45.99
2023-05-09T17:24:27.832Z,45.20
2023-05-09T17:29:30.556Z,39.87
2023-05-09T17:34:32.284Z,46.65
2023-05-09T17:39:33.730Z,35.23
2023-05-09T17:44:35.152Z,45.41
2023-05-09T17:49:36.621Z,38.10
2023-05-09T17:54:38.058Z,48.16
2023-05-09T17:59:41.325Z,45.31
2023-05-09T18:04:44.565Z,50.02
2023-05-09T18:09:46.191Z,53.05
2023-05-09T18:14:47.752Z,48.46
2023-05-09T18:19:49.295Z,42.34
2023-05-09T18:24:52.287Z,41.76
2023-05-09T18:29:53.698Z,46.78
2023-05-09T18:34:55.169Z,47.47
2023-05-09T18:39:57.096Z,48.34
2023-05-09T18:45:00.726Z,48.60
2023-05-09T18:50:03.966Z,50.45
2023-05-09T18:55:06.007Z,50.26
2023-05-09T19:00:08.084Z,47.11
2023-05-09T19:05:09.517Z,46.90
2023-05-09T19:10:11.125Z,44.45
2023-05-09T19:15:12.632Z,40.89
2023-05-09T19:20:14.548Z,46.07
2023-05-09T19:25:16.278Z,48.58
2023-05-09T19:30:17.945Z,50.42
2023-05-09T19:35:20.179Z,50.70
2023-05-09T19:40:21.898Z,46.45
2023-05-09T19:45:23.321Z,47.85
2023-05-09T19:50:24.740Z,47.93
2023-05-09T19:55:26.292Z,49.61
2023-05-09T20:00:27.821Z,53.20
2023-05-09T20:05:29.258Z,50.59
2023-05-09T20:10:30.845Z,50.75
2023-05-09T20:15:32.308Z,49.59
2023-05-09T20:20:34.144Z,50.52
2023-05-09T20:25:35.580Z,51.42
2023-05-09T20:30:36.987Z,51.27
2023-05-09T20:35:39.807Z,53.80
2023-05-09T20:40:42.972Z,52.88
2023-05-09T20:45:44.472Z,54.31
2023-05-09T20:50:46.336Z,50.78
2023-05-09T20:55:50.222Z,51.68
2023-05-09T21:00:52.049Z,49.80
2023-05-09T21:05:53.700Z,51.66
2023-05-09T21:10:55.124Z,53.92
2023-05-09T21:15:56.544Z,53.33
2023-05-09T21:21:01.651Z,53.69
2023-05-09T21:26:03.179Z,52.47
2023-05-09T21:31:04.857Z,51.06
2023-05-09T21:36:07.556Z,49.94
2023-05-09T21:41:10.001Z,50.15
2023-05-09T21:46:11.539Z,50.25
2023-05-09T21:51:13.025Z,53.64
2023-05-09T21:56:14.435Z,48.76
2023-05-09T22:01:18.435Z,50.80
2023-05-09T22:06:19.915Z,53.71
2023-05-09T22:11:21.375Z,52.13
2023-05-09T22:16:22.958Z,50.33
2023-05-09T22:21:24.408Z,53.10
2023-05-09T22:26:26.168Z,51.21
2023-05-09T22:31:27.621Z,53.59
2023-05-09T22:36:29.140Z,51.87
2023-05-09T22:41:30.564Z,54.61
2023-05-09T22:46:32.304Z,53.94
2023-05-09T22:51:33.923Z,53.05
2023-05-09T22:56:35.359Z,52.30
2023-05-09T23:01:36.817Z,52.47
2023-05-09T23:06:38.283Z,53.66
2023-05-09T23:11:39.725Z,56.32
2023-05-09T23:16:41.153Z,56.04
2023-05-09T23:21:42.596Z,55.92
2023-05-09T23:26:44.298Z,53.23
2023-05-09T23:31:45.917Z,53.08
2023-05-09T23:36:47.409Z,56.47
2023-05-09T23:41:48.828Z,55.94
2023-05-09T23:46:50.390Z,54.85
2023-05-09T23:51:51.852Z,56.83
2023-05-09T23:56:53.290Z,54.76
